Galveston, TX

9:55 PM CDT on August 27, 2016 (GMT -0500)
Scholes International At Galveston | | Change Station

Elev 3 ft 29.27 °N, 94.86 °W | Updated 3 minutes ago

Clear
Clear
79 °F
Feels Like 79 °F
N
14
Wind Variable Wind from NNE

Today
High -- | Low -- °F
--% Chance of Precip.
Yesterday
High -- | Low -- °F
Precip. -- in
Pressure 29.96 in
Visibility 10.0 miles
Clouds Clear
Dew Point 76 °F
Humidity 90%
Rainfall 0.09 in
Snow Depth Not available.
6:54 AM 7:46 PM
Waning Crescent, 19% visible
METAR KGLS 280252Z AUTO 02012KT 10SM CLR 26/24 A2996 RMK AO2 SLP145 T02610244 53016
Pressure 29.96 in
Visibility 10.0 miles
Clouds Clear
Dew Point 76 °F
Humidity 90%
Rainfall 0.09 in
Snow Depth Not available.
6:54 AM 7:46 PM
Waning Crescent, 19% visible
METAR KGLS 280252Z AUTO 02012KT 10SM CLR 26/24 A2996 RMK AO2 SLP145 T02610244 53016

10-Day Weather Forecast

Almanac

Astronomy

Aug. 27, 2016 Rise Set
Actual Time
Civil Twilight
Nautical Twilight
Astronomical Twilight
Moon
Length of Visible Light
Length of Day
Tomorrow will be .
, % of the Moon is Illuminated

Today's Extremes

State Highs State Lows

Community

WunderPhotos

Upload Photos

1,935,505 photos uploaded!

WunderBlog® & News

Nearby

Air Quality

  Air Quality AQ Index Pollutant
Not available.

Snow Depth

Station Depth Elevation

Earthquake Activity

City Distance Mag. Time & Date
Minimum magnitude displayed is 2.5.

Coastal Water Temperatures

Place Temperature

Stations

Nearby Weather Stations

Station Location Temp. Windchill Dew Point Humidity Wind Precip. Elev Updated Type
                   

Watches & Warnings

Flood Watch / Flood Statement
Issued: 9:54 PM CDT Aug. 27, 2016 – National Weather Service

... Flash Flood Watch is cancelled...

The Flash Flood Watch for a portion of southeast Texas has been
cancelled. As of the bottom of the 9 PM hour, rainfall rates required
to pose an immediate flash flooding threat have not materialized.
Current rainfall rates of between 0.5 to a little over an inch are
occurring and eastern and offshore cells are moving at a good
clip. Rainfall rates of reaching or exceeding 2 to 3 inches per
hour will be needed to cause any flooding. The threat still exists
that Sunday rainfall may reach these thresholds, especially over
the eastern and southeastern forecast area counties but, as of
now, current radar trends are not supportive of these rates into
the overnight Sunday morning hours.